Time;durP1;ratioP1;P1;durP2;ratioP2;P2;SDS_P1;SDS_P2;PMS_P1;PMS_P2;Temp;Humidity;BMP_temperature;BMP_pressure;BME280_temperature;BME280_humidity;BME280_pressure;Samples;Min_cycle;Max_cycle;Signal;HPM_P1;HPM_P2
2021/11/16 00:08:14;;;;;;;38.08;20.25;;;;;;;7.33;85.21;101028.84;20993067;28;20049;-71
2021/11/16 00:18:18;;;;;;;40.55;18.55;;;;;;;7.34;84.99;101018.47;20992454;28;20048;-72
2021/11/16 00:28:20;;;;;;;35.22;18.65;;;;;;;7.35;84.71;101014.13;20991244;28;20052;-72
2021/11/16 00:38:25;;;;;;;41.58;19.50;;;;;;;7.31;85.49;101013.22;20990487;28;20110;-71
2021/11/16 00:48:27;;;;;;;37.92;18.65;;;;;;;7.31;85.32;101021.03;20990970;28;20044;-72
2021/11/16 00:58:28;;;;;;;39.33;19.50;;;;;;;7.35;85.37;101033.22;20988895;28;20098;-72
2021/11/16 01:08:30;;;;;;;37.70;18.27;;;;;;;7.27;85.98;101037.50;20987541;28;20513;-72
2021/11/16 01:18:32;;;;;;;34.45;18.75;;;;;;;7.32;85.88;101038.41;20987537;28;20045;-72
2021/11/16 01:28:34;;;;;;;33.42;18.17;;;;;;;7.27;86.17;101034.03;20986942;28;20061;-71
2021/11/16 01:38:36;;;;;;;41.53;19.52;;;;;;;7.19;86.65;101024.44;20985434;28;20056;-71
2021/11/16 01:48:38;;;;;;;33.72;18.10;;;;;;;7.25;86.83;101031.41;20985157;28;20052;-72
2021/11/16 01:58:40;;;;;;;36.78;18.40;;;;;;;7.24;87.03;101034.03;20984092;28;20048;-71
2021/11/16 02:08:41;;;;;;;39.45;18.38;;;;;;;7.22;87.21;101028.78;20983396;28;20040;-71
2021/11/16 02:18:43;;;;;;;38.90;19.60;;;;;;;7.22;87.17;101015.75;20982078;28;20452;-71
2021/11/16 02:28:46;;;;;;;38.03;18.48;;;;;;;7.21;87.31;101008.81;20982751;28;20052;-71
2021/11/16 02:38:49;;;;;;;41.35;19.02;;;;;;;7.24;86.85;101000.16;20982626;28;20394;-72
2021/11/16 02:48:51;;;;;;;38.33;19.70;;;;;;;7.22;87.20;100997.53;20982718;28;20743;-71
2021/11/16 02:58:52;;;;;;;38.92;19.52;;;;;;;7.17;87.55;100984.47;20980718;28;20487;-72
2021/11/16 03:08:54;;;;;;;39.58;19.25;;;;;;;7.15;87.84;100974.91;20980234;28;20117;-72
2021/11/16 03:18:55;;;;;;;42.83;20.00;;;;;;;7.20;87.99;100984.50;20978852;28;20052;-72
2021/11/16 03:29:00;;;;;;;40.00;19.90;;;;;;;7.17;88.21;100975.78;20986251;28;20044;-71
2021/11/16 03:39:04;;;;;;;39.93;19.73;;;;;;;7.16;87.95;100964.50;20994849;28;20059;-72
2021/11/16 03:49:06;;;;;;;40.75;18.55;;;;;;;7.15;88.28;100954.09;20994844;28;20818;-72
2021/11/16 03:59:07;;;;;;;40.95;19.35;;;;;;;7.24;88.22;100948.06;20993426;28;20420;-72
2021/11/16 04:09:09;;;;;;;38.00;18.58;;;;;;;7.07;90.78;100954.00;20993441;28;20044;-71
2021/11/16 04:19:12;;;;;;;39.15;18.60;;;;;;;7.02;90.57;100958.31;20992348;28;20058;-73
2021/11/16 04:29:14;;;;;;;36.65;19.05;;;;;;;7.08;90.94;100957.47;20991295;28;20053;-73
2021/11/16 04:39:16;;;;;;;36.58;18.42;;;;;;;7.02;91.67;100955.72;20989353;28;20718;-72
2021/11/16 04:49:29;;;;;;;36.97;19.20;;;;;;;7.06;90.35;100951.41;20990231;28;20123;-72
2021/11/16 05:09:38;;;;;;;36.58;19.48;;;;;;;7.00;92.31;100953.97;20987921;28;20046;-72
2021/11/16 05:19:40;;;;;;;38.08;18.83;;;;;;;6.93;92.25;100948.69;20987344;28;20186;-72
2021/11/16 05:29:43;;;;;;;40.92;18.73;;;;;;;6.89;92.65;100967.75;20986269;28;20098;-71
2021/11/16 05:39:44;;;;;;;40.90;19.10;;;;;;;6.93;92.86;100973.88;20985467;28;20150;-71
2021/11/16 05:49:46;;;;;;;39.75;19.42;;;;;;;6.92;92.63;100983.41;20984599;28;20071;-72
2021/11/16 05:59:48;;;;;;;37.55;19.10;;;;;;;6.96;93.38;100980.84;20984181;28;20122;-71
2021/11/16 06:09:50;;;;;;;35.17;18.75;;;;;;;6.96;93.26;100999.06;20983373;28;20049;-71
2021/11/16 06:19:52;;;;;;;38.40;20.08;;;;;;;6.87;93.60;101000.72;20983221;28;20048;-71
2021/11/16 06:29:53;;;;;;;39.00;19.23;;;;;;;6.85;94.07;101011.97;20983314;28;20048;-71
2021/11/16 06:39:55;;;;;;;41.63;21.25;;;;;;;6.70;94.83;101017.88;20982055;28;20467;-71
2021/11/16 06:49:57;;;;;;;43.83;20.75;;;;;;;6.71;95.18;101013.56;20981428;28;20045;-71
2021/11/16 06:59:59;;;;;;;46.67;23.13;;;;;;;6.77;94.65;101030.13;20981582;28;20045;-71
2021/11/16 07:10:00;;;;;;;45.30;21.95;;;;;;;6.73;95.74;101037.88;20981353;28;20045;-71
2021/11/16 07:20:03;;;;;;;44.53;21.17;;;;;;;6.66;97.08;101032.63;20929432;28;20107;-72
2021/11/16 07:30:18;;;;;;;52.25;23.48;;;;;;;6.58;96.98;101042.06;20913599;28;20040;-72
2021/11/16 07:40:21;;;;;;;48.90;22.73;;;;;;;6.56;97.40;101035.09;20913888;28;20053;-71
2021/11/16 07:50:28;;;;;;;51.13;23.55;;;;;;;6.61;97.28;101038.59;20912680;28;20099;-71
2021/11/16 08:00:32;;;;;;;54.38;25.05;;;;;;;6.64;96.52;101043.84;20911252;28;20032;-71
2021/11/16 08:10:37;;;;;;;56.25;25.58;;;;;;;6.59;96.59;101050.75;20963212;28;20049;-73
2021/11/16 08:20:39;;;;;;;;;;;;;;;6.60;97.32;101048.16;20939214;28;20058;-71
2021/11/16 08:30:40;;;;;;;57.45;25.80;;;;;;;6.59;96.93;101051.63;20943665;28;19921;-71
2021/11/16 08:40:45;;;;;;;58.63;25.92;;;;;;;6.72;96.55;101063.03;20941084;28;20045;-72
2021/11/16 08:50:48;;;;;;;56.03;26.13;;;;;;;6.63;96.77;101056.00;20901142;28;20460;-73
2021/11/16 09:00:54;;;;;;;60.90;27.08;;;;;;;6.75;96.89;101057.84;20897378;28;20037;-72
2021/11/16 09:11:12;;;;;;;59.47;27.38;;;;;;;6.71;96.59;101057.78;20936256;28;20486;-71
2021/11/16 09:21:19;;;;;;;59.25;27.85;;;;;;;6.73;96.09;101059.56;20979430;28;20493;-72
2021/11/16 09:31:23;;;;;;;64.38;27.55;;;;;;;6.79;95.64;101057.03;20979585;28;20052;-72
2021/11/16 09:41:57;;;;;;;54.10;24.83;;;;;;;6.80;95.03;101056.16;20977570;28;20453;-73
2021/11/16 09:52:02;;;;;;;55.58;25.90;;;;;;;6.82;95.37;101057.06;20974026;28;20055;-72
2021/11/16 10:02:05;;;;;;;59.70;25.33;;;;;;;6.88;95.67;101054.50;20977297;28;20095;-72
2021/11/16 10:12:09;;;;;;;57.03;26.03;;;;;;;6.86;95.34;101053.63;20948616;28;20052;-72
2021/11/16 10:22:16;;;;;;;60.05;25.77;;;;;;;7.08;94.83;101048.63;20965433;28;20048;-72
2021/11/16 10:32:19;;;;;;;61.15;26.60;;;;;;;7.09;94.35;101037.34;20979644;28;20048;-72
2021/11/16 10:42:21;;;;;;;55.30;25.00;;;;;;;7.23;94.02;101046.13;20977627;28;20076;-72
2021/11/16 10:52:27;;;;;;;61.60;27.23;;;;;;;7.14;94.81;101039.16;20975486;28;20045;-72
2021/11/16 11:02:28;;;;;;;56.30;25.48;;;;;;;7.10;95.05;101033.91;20973887;28;20044;-72
2021/11/16 11:12:33;;;;;;;59.45;26.38;;;;;;;7.12;95.51;101037.38;20952706;28;20049;-74
2021/11/16 11:22:41;;;;;;;59.07;25.17;;;;;;;7.10;94.38;101013.06;20885618;28;20045;-74
2021/11/16 11:32:45;;;;;;;56.40;26.42;;;;;;;7.25;94.46;101005.38;20929494;28;20095;-75
2021/11/16 11:42:52;;;;;;;55.13;24.43;;;;;;;7.24;94.39;100995.81;20930822;28;20114;-74
2021/11/16 11:52:55;;;;;;;53.17;24.67;;;;;;;7.26;93.52;100998.44;20967460;28;20052;-75
2021/11/16 12:02:57;;;;;;;52.67;22.52;;;;;;;7.13;93.40;100994.84;20987958;28;20048;-74
2021/11/16 12:12:58;;;;;;;49.97;21.67;;;;;;;7.33;92.84;100984.56;20959980;28;20198;-74
2021/11/16 12:23:00;;;;;;;44.85;18.58;;;;;;;7.36;91.52;100985.47;20902493;28;20052;-73
2021/11/16 12:33:01;;;;;;;39.08;16.77;;;;;;;7.36;92.62;100966.38;20948988;28;20045;-72
2021/11/16 12:43:06;;;;;;;33.38;15.90;;;;;;;7.34;92.61;100963.75;20984828;28;20555;-73
2021/11/16 12:53:07;;;;;;;32.10;16.80;;;;;;;7.26;91.09;100959.34;20986209;28;20052;-74
2021/11/16 13:03:09;;;;;;;35.63;17.95;;;;;;;7.31;91.99;100948.09;20981939;28;20052;-72
2021/11/16 13:13:13;;;;;;;40.03;17.98;;;;;;;7.39;93.00;100941.22;20953188;28;20391;-72
2021/11/16 13:23:18;;;;;;;39.37;19.47;;;;;;;7.50;91.98;100943.00;20898261;28;20052;-72
2021/11/16 13:34:04;;;;;;;40.33;18.92;;;;;;;7.42;93.33;100932.53;20905177;28;20044;-72
2021/11/16 13:44:13;;;;;;;35.47;18.10;;;;;;;7.40;93.11;100926.44;20897300;28;20130;-72
2021/11/16 13:54:15;;;;;;;40.47;18.30;;;;;;;7.32;93.08;100920.31;20896114;28;20259;-71
2021/11/16 14:04:19;;;;;;;35.10;18.08;;;;;;;7.32;93.11;100926.41;20895075;28;20110;-72
2021/11/16 14:14:22;;;;;;;35.23;16.73;;;;;;;7.46;92.37;100919.53;20931801;28;20513;-73
2021/11/16 14:24:33;;;;;;;41.70;19.08;;;;;;;7.35;92.27;100907.31;20976921;28;20538;-71
2021/11/16 14:34:35;;;;;;;38.83;18.63;;;;;;;7.31;92.91;100909.03;20975411;28;20515;-71
2021/11/16 14:44:50;;;;;;;35.03;17.65;;;;;;;7.11;92.27;100908.91;20974789;28;20114;-72
2021/11/16 14:55:01;;;;;;;35.27;17.73;;;;;;;7.15;93.03;100899.41;20974556;28;20055;-71
2021/11/16 15:05:03;;;;;;;34.67;17.77;;;;;;;7.17;93.46;100906.34;20966507;28;20041;-72
2021/11/16 15:15:07;;;;;;;39.65;19.25;;;;;;;7.19;93.60;100898.56;20934494;28;20052;-71
2021/11/16 15:25:29;;;;;;;41.95;19.63;;;;;;;7.13;93.97;100899.38;20980066;28;20057;-71
2021/11/16 15:35:39;;;;;;;39.10;18.13;;;;;;;7.03;92.95;100894.09;20988478;28;20045;-69
2021/11/16 15:45:57;;;;;;;46.05;19.58;;;;;;;7.01;94.05;100898.44;20963827;28;20064;-68
2021/11/16 16:06:20;;;;;;;39.97;18.73;;;;;;;7.01;95.29;100901.03;20904133;28;20182;-70
2021/11/16 16:16:23;;;;;;;41.88;20.05;;;;;;;6.91;96.10;100892.28;20957812;28;20091;-69
2021/11/16 16:26:25;;;;;;;46.65;21.75;;;;;;;6.89;95.88;100900.06;20984478;28;20337;-69
2021/11/16 16:36:28;;;;;;;43.95;20.67;;;;;;;6.92;96.02;100897.50;20982597;28;20082;-69
2021/11/16 16:46:32;;;;;;;46.72;21.77;;;;;;;6.99;95.77;100897.53;20983889;28;20455;-68
2021/11/16 16:56:40;;;;;;;54.53;24.13;;;;;;;6.99;95.43;100887.97;20982278;28;20377;-68
2021/11/16 17:06:42;;;;;;;57.30;24.98;;;;;;;7.01;95.04;100894.09;20980753;28;20499;-69
2021/11/16 17:16:44;;;;;;;52.08;23.83;;;;;;;7.02;95.06;100905.38;20922882;28;20099;-69
2021/11/16 17:26:47;;;;;;;49.03;22.38;;;;;;;6.91;95.59;100907.91;20897703;28;20060;-68
2021/11/16 17:36:49;;;;;;;49.63;21.98;;;;;;;6.86;95.94;100910.47;20894367;28;20710;-68
2021/11/16 17:46:51;;;;;;;48.42;20.70;;;;;;;6.82;96.20;100929.53;20975027;28;20036;-68
2021/11/16 17:56:55;;;;;;;41.58;18.80;;;;;;;6.79;95.85;100924.28;20977828;28;20117;-69
2021/11/16 18:16:58;;;;;;;48.97;20.10;;;;;;;6.71;96.08;100915.56;20975147;28;20307;-69
2021/11/16 18:27:00;;;;;;;45.63;20.88;;;;;;;6.64;97.03;100904.22;20977075;28;20087;-68
2021/11/16 18:37:02;;;;;;;44.03;18.77;;;;;;;6.68;97.16;100905.13;20973787;28;20109;-68
2021/11/16 18:47:20;;;;;;;51.53;23.23;;;;;;;6.71;96.56;100912.97;20974321;28;20113;-68
2021/11/16 18:57:25;;;;;;;52.63;22.25;;;;;;;6.63;96.69;100906.81;20975973;28;20080;-68
2021/11/16 19:07:27;;;;;;;50.28;20.63;;;;;;;6.61;97.07;100918.94;20989187;28;20106;-68
2021/11/16 19:17:28;;;;;;;54.30;23.50;;;;;;;6.65;96.99;100916.38;20990025;28;20052;-68
2021/11/16 19:37:56;;;;;;;;;;;;;;;6.58;97.08;100914.59;20988485;28;20071;-68
2021/11/16 19:47:58;;;;;;;52.92;23.63;;;;;;;6.62;97.19;100911.16;20987953;28;20571;-68
2021/11/16 19:58:00;;;;;;;56.58;23.92;;;;;;;6.59;97.25;100912.84;20988577;28;20052;-68
2021/11/16 20:08:02;;;;;;;58.50;25.67;;;;;;;6.58;97.37;100924.13;20983666;28;20045;-68
2021/11/16 20:18:03;;;;;;;60.70;26.13;;;;;;;6.54;97.31;100933.63;20915702;28;20118;-68
2021/11/16 20:28:07;;;;;;;62.75;25.10;;;;;;;6.54;97.82;100933.63;20902637;28;20053;-68
2021/11/16 20:38:14;;;;;;;60.60;24.75;;;;;;;6.57;97.37;100922.38;20899189;28;20122;-68
2021/11/16 21:08:55;;;;;;;65.95;26.88;;;;;;;6.54;97.34;100930.16;20896542;28;20045;-69
2021/11/16 21:18:57;;;;;;;56.42;25.35;;;;;;;6.55;97.29;100931.88;20974942;28;20162;-71
2021/11/16 21:28:59;;;;;;;65.60;27.10;;;;;;;6.55;97.00;100926.69;20980525;28;20048;-71
2021/11/16 21:39:02;;;;;;;60.20;26.15;;;;;;;6.57;97.33;100923.25;20979353;28;20060;-72
2021/11/16 21:49:07;;;;;;;66.85;26.95;;;;;;;6.61;96.77;100921.53;20979457;28;20514;-73
2021/11/16 21:59:11;;;;;;;63.53;27.25;;;;;;;6.57;97.01;100912.84;20978508;28;20469;-71
2021/11/16 22:09:12;;;;;;;55.17;23.88;;;;;;;6.46;96.67;100918.78;20974044;28;20607;-72
2021/11/16 22:19:14;;;;;;;52.15;23.08;;;;;;;6.42;96.83;100918.78;20979647;28;20052;-72
2021/11/16 22:29:24;;;;;;;54.22;22.23;;;;;;;6.43;97.08;100914.44;20976900;28;20467;-73
2021/11/16 22:39:26;;;;;;;44.47;19.88;;;;;;;6.36;97.13;100918.69;20976203;28;20141;-74
2021/11/16 22:49:28;;;;;;;46.55;20.35;;;;;;;6.34;97.33;100920.44;20978734;28;20099;-72
